createdAt,value
2023-10-21T00:00:29.475Z,95864.16
2023-10-21T00:02:31.827Z,95857.41
2023-10-21T00:04:36.626Z,95855.06
2023-10-21T00:06:41.499Z,95864.69
2023-10-21T00:08:46.192Z,95861.41
2023-10-21T00:10:50.897Z,95864.31
2023-10-21T00:12:55.707Z,95855.50
2023-10-21T00:15:00.439Z,95865.53
2023-10-21T00:17:08.611Z,95865.53
2023-10-21T00:19:13.803Z,95865.25
2023-10-21T00:21:18.530Z,95864.31
2023-10-21T00:23:23.204Z,95861.69
2023-10-21T00:25:25.546Z,95867.72
2023-10-21T00:27:30.268Z,95868.56
2023-10-21T00:29:35.883Z,95878.47
2023-10-21T00:31:40.878Z,95881.19
2023-10-21T00:33:48.325Z,95874.31
2023-10-21T00:35:53.045Z,95880.50
2023-10-21T00:37:58.289Z,95885.84
2023-10-21T00:40:04.858Z,95896.72
2023-10-21T00:42:10.345Z,95882.81
2023-10-21T00:44:17.011Z,95892.91
2023-10-21T00:46:24.009Z,95894.00
2023-10-21T00:48:26.502Z,95905.09
2023-10-21T00:50:34.725Z,95902.91
2023-10-21T00:52:43.281Z,95903.19
2023-10-21T00:54:48.084Z,95908.13
2023-10-21T00:56:52.849Z,95904.84
2023-10-21T00:58:57.977Z,95911.84
2023-10-21T01:01:00.212Z,95913.91
2023-10-21T01:03:05.234Z,95922.56
2023-10-21T01:05:10.575Z,95915.56
2023-10-21T01:07:27.049Z,95922.81
2023-10-21T01:09:33.217Z,95922.00
2023-10-21T01:11:38.555Z,95933.53
2023-10-21T01:13:45.267Z,95930.09
2023-10-21T01:15:47.400Z,95930.38
2023-10-21T01:17:52.843Z,95934.25
2023-10-21T01:20:01.319Z,95938.38
2023-10-21T01:22:06.068Z,95937.50
2023-10-21T01:24:13.705Z,95942.19
2023-10-21T01:26:16.045Z,95952.63
2023-10-21T01:28:21.308Z,95951.00
2023-10-21T01:30:26.707Z,95958.28
2023-10-21T01:32:32.138Z,95967.88
2023-10-21T01:34:37.237Z,95965.66
2023-10-21T01:36:41.999Z,95966.75
2023-10-21T01:38:47.332Z,95959.09
2023-10-21T01:40:55.137Z,95969.63
2023-10-21T01:42:59.926Z,95973.06
2023-10-21T01:45:05.558Z,95970.19
2023-10-21T01:47:10.740Z,95977.34
2023-10-21T01:49:12.844Z,95978.44
2023-10-21T01:51:18.206Z,95974.16
2023-10-21T01:53:23.168Z,95988.19
2023-10-21T01:55:28.264Z,95978.56
2023-10-21T01:57:37.573Z,95990.53
2023-10-21T01:59:42.953Z,95989.00
2023-10-21T02:01:45.087Z,95999.31
2023-10-21T02:03:49.996Z,95996.44
2023-10-21T02:05:55.453Z,95994.66
2023-10-21T02:07:57.578Z,96005.91
2023-10-21T02:10:02.757Z,96002.59
2023-10-21T02:12:08.586Z,96005.66
2023-10-21T02:14:16.274Z,95999.19
2023-10-21T02:16:22.317Z,96010.47
2023-10-21T02:18:27.104Z,96015.16
2023-10-21T02:20:32.020Z,96015.72
2023-10-21T02:22:34.238Z,96021.66
2023-10-21T02:24:39.342Z,96016.97
2023-10-21T02:26:44.232Z,96027.97
2023-10-21T02:28:49.659Z,96034.59
2023-10-21T02:31:01.594Z,96036.78
2023-10-21T02:33:06.828Z,96044.22
2023-10-21T02:35:12.282Z,96038.75
2023-10-21T02:37:14.809Z,96041.19
2023-10-21T02:39:19.729Z,96044.41
2023-10-21T02:41:24.722Z,96043.53
2023-10-21T02:43:29.612Z,96048.66
2023-10-21T02:45:34.593Z,96043.28
2023-10-21T02:47:42.160Z,96041.50
2023-10-21T02:49:46.950Z,96040.53
2023-10-21T02:51:51.971Z,96044.78
2023-10-21T02:53:57.782Z,96050.28
2023-10-21T02:56:02.800Z,96051.00
2023-10-21T02:58:07.659Z,96053.59
2023-10-21T03:00:17.035Z,96050.72
2023-10-21T03:02:22.127Z,96057.47
2023-10-21T03:04:29.464Z,96064.34
2023-10-21T03:06:34.944Z,96059.09
2023-10-21T03:08:40.693Z,96075.06
2023-10-21T03:10:45.603Z,96050.03
2023-10-21T03:12:51.888Z,96062.41
2023-10-21T03:14:57.118Z,96070.81
2023-10-21T03:17:02.361Z,96073.84
2023-10-21T03:19:07.657Z,96070.84
2023-10-21T03:21:15.552Z,96072.63
2023-10-21T03:23:20.971Z,96073.59
2023-10-21T03:25:26.339Z,96079.78
2023-10-21T03:27:31.395Z,96078.81
2023-10-21T03:29:36.549Z,96081.44
2023-10-21T03:31:38.888Z,96085.81
2023-10-21T03:33:44.204Z,96080.59
2023-10-21T03:35:53.108Z,96089.28
2023-10-21T03:38:01.221Z,96084.06
2023-10-21T03:40:12.042Z,96084.06
2023-10-21T03:42:17.893Z,96093.66
2023-10-21T03:44:22.937Z,96084.88
2023-10-21T03:46:28.405Z,96092.44
2023-10-21T03:48:33.418Z,96091.47
2023-10-21T03:50:38.361Z,96095.75
2023-10-21T03:52:43.813Z,96083.50
2023-10-21T03:54:54.225Z,96101.66
2023-10-21T03:56:59.785Z,96110.31
2023-10-21T03:59:04.756Z,96118.03
2023-10-21T04:01:10.526Z,96106.88
2023-10-21T04:03:15.953Z,96109.50
2023-10-21T04:05:21.346Z,96114.03
2023-10-21T04:07:26.516Z,96124.34
2023-10-21T04:09:32.662Z,96125.31
2023-10-21T04:11:40.417Z,96132.19
2023-10-21T04:13:45.341Z,96126.13
2023-10-21T04:15:47.778Z,96133.72
2023-10-21T04:17:52.839Z,96135.63
2023-10-21T04:19:57.728Z,96135.63
2023-10-21T04:22:03.560Z,96136.44
2023-10-21T04:24:09.076Z,96141.00
2023-10-21T04:26:13.870Z,96153.38
2023-10-21T04:28:21.475Z,96160.38
2023-10-21T04:30:26.999Z,96159.81
2023-10-21T04:32:29.304Z,96158.75
2023-10-21T04:34:34.228Z,96162.28
2023-10-21T04:36:39.559Z,96165.59
2023-10-21T04:38:45.321Z,96167.13
2023-10-21T04:40:50.155Z,96163.44
2023-10-21T04:42:54.937Z,96162.47
2023-10-21T04:45:02.278Z,96167.41
2023-10-21T04:47:04.467Z,96170.72
2023-10-21T04:49:09.173Z,96173.06
2023-10-21T04:51:14.090Z,96170.31
2023-10-21T04:53:20.156Z,96178.16
2023-10-21T04:55:25.324Z,96186.84
2023-10-21T04:57:30.091Z,96196.34
2023-10-21T04:59:32.308Z,96191.09
2023-10-21T05:01:39.844Z,96194.28
2023-10-21T05:03:44.777Z,96201.16
2023-10-21T05:05:49.722Z,96210.50
2023-10-21T05:07:54.673Z,96200.75
2023-10-21T05:09:56.827Z,96204.91
2023-10-21T05:12:01.885Z,96212.47
2023-10-21T05:14:07.274Z,96219.22
2023-10-21T05:16:09.329Z,96221.84
2023-10-21T05:18:17.145Z,96237.25
2023-10-21T05:20:22.382Z,96240.56
2023-10-21T05:22:24.815Z,96246.47
2023-10-21T05:24:29.659Z,96262.06
2023-10-21T05:26:32.159Z,96265.22
2023-10-21T05:28:36.809Z,96267.72
2023-10-21T05:30:43.759Z,96282.44
2023-10-21T05:32:48.669Z,96280.63
2023-10-21T05:34:56.098Z,96283.25
2023-10-21T05:37:00.752Z,96285.03
2023-10-21T05:39:06.005Z,96289.47
2023-10-21T05:41:10.814Z,96299.09
2023-10-21T05:43:16.559Z,96302.66
2023-10-21T05:45:21.390Z,96306.94
2023-10-21T05:47:27.941Z,96304.44
2023-10-21T05:49:33.107Z,96305.00
2023-10-21T05:51:41.090Z,96300.59
2023-10-21T05:53:45.994Z,96316.97
2023-10-21T05:55:51.038Z,96325.91
2023-10-21T05:57:55.761Z,96332.56
2023-10-21T06:00:01.708Z,96342.06
2023-10-21T06:02:09.962Z,96334.22
2023-10-21T06:04:14.929Z,96347.28
2023-10-21T06:06:21.081Z,96350.88
2023-10-21T06:08:25.889Z,96368.34
2023-10-21T06:10:30.625Z,96365.59
2023-10-21T06:12:35.996Z,96365.84
2023-10-21T06:14:40.873Z,96373.59
2023-10-21T06:16:45.924Z,96378.94
2023-10-21T06:18:50.962Z,96385.00
2023-10-21T06:20:56.153Z,96395.59
2023-10-21T06:23:01.064Z,96400.69
2023-10-21T06:25:09.388Z,96399.47
2023-10-21T06:27:14.113Z,96400.97
2023-10-21T06:29:18.877Z,96411.88
2023-10-21T06:31:23.582Z,96404.09
2023-10-21T06:33:28.958Z,96410.34
2023-10-21T06:35:31.200Z,96410.75
2023-10-21T06:37:36.065Z,96408.72
2023-10-21T06:39:41.072Z,96409.25
2023-10-21T06:41:48.876Z,96415.63
2023-10-21T06:43:53.881Z,96430.38
2023-10-21T06:45:59.183Z,96425.44
2023-10-21T06:48:05.845Z,96426.81
2023-10-21T06:50:12.888Z,96426.69
2023-10-21T06:52:19.398Z,96437.63
2023-10-21T06:54:24.723Z,96428.53
2023-10-21T06:56:26.958Z,96444.94
2023-10-21T06:58:35.335Z,96430.59
2023-10-21T07:00:40.229Z,96435.84
2023-10-21T07:02:45.570Z,96441.63
2023-10-21T07:04:51.503Z,96434.47
2023-10-21T07:06:56.748Z,96435.72
2023-10-21T07:09:02.060Z,96444.41
2023-10-21T07:11:07.246Z,96446.75
2023-10-21T07:13:12.576Z,96458.06
2023-10-21T07:15:20.737Z,96468.69
2023-10-21T07:17:25.493Z,96467.88
2023-10-21T07:19:31.295Z,96473.50
2023-10-21T07:21:36.252Z,96465.25
2023-10-21T07:23:41.747Z,96473.41
2023-10-21T07:25:47.083Z,96478.38
2023-10-21T07:27:52.117Z,96472.03
2023-10-21T07:29:57.081Z,96483.91
2023-10-21T07:32:05.715Z,96493.28
2023-10-21T07:34:07.797Z,96492.06
2023-10-21T07:36:12.662Z,96492.88
2023-10-21T07:38:17.354Z,96491.22
2023-10-21T07:40:22.024Z,96495.22
2023-10-21T07:42:24.458Z,96502.41
2023-10-21T07:44:29.613Z,96502.84
2023-10-21T07:46:34.851Z,96505.88
2023-10-21T07:48:42.203Z,96515.94
2023-10-21T07:50:46.911Z,96521.34
2023-10-21T07:52:51.648Z,96525.34
2023-10-21T07:54:57.104Z,96524.78
2023-10-21T07:57:02.691Z,96529.34
2023-10-21T07:59:07.688Z,96535.03
2023-10-21T08:01:12.889Z,96535.69
2023-10-21T08:03:18.231Z,96544.84
2023-10-21T08:05:25.914Z,96544.00
2023-10-21T08:07:30.750Z,96544.97
2023-10-21T08:09:37.411Z,96550.34
2023-10-21T08:11:42.320Z,96554.34
2023-10-21T08:13:47.137Z,96556.03
2023-10-21T08:15:51.905Z,96563.19
2023-10-21T08:17:56.811Z,96563.59
2023-10-21T08:19:58.980Z,96571.47
2023-10-21T08:22:07.448Z,96574.38
2023-10-21T08:24:12.625Z,96579.06
2023-10-21T08:26:19.308Z,96582.66
2023-10-21T08:28:25.889Z,96580.59
2023-10-21T08:30:32.240Z,96577.31
2023-10-21T08:32:37.304Z,96576.72
2023-10-21T08:34:42.055Z,96582.41
2023-10-21T08:36:44.106Z,96585.69
2023-10-21T08:38:52.510Z,96588.19
2023-10-21T08:40:54.736Z,96585.84
2023-10-21T08:43:04.665Z,96585.03
2023-10-21T08:45:11.212Z,96588.63
2023-10-21T08:47:17.910Z,96583.91
2023-10-21T08:49:23.377Z,96587.63
2023-10-21T08:51:29.850Z,96593.28
2023-10-21T08:53:35.386Z,96599.94
2023-10-21T08:55:43.081Z,96605.44
2023-10-21T08:57:50.079Z,96603.09
2023-10-21T08:59:55.299Z,96598.94
2023-10-21T09:02:00.751Z,96610.41
2023-10-21T09:04:05.688Z,96607.06
2023-10-21T09:06:12.243Z,96603.47
2023-10-21T09:08:19.609Z,96599.28
2023-10-21T09:10:24.690Z,96592.34
2023-10-21T09:12:32.625Z,96595.50
2023-10-21T09:14:53.381Z,96600.91
2023-10-21T09:16:59.315Z,96604.38
2023-10-21T09:19:05.253Z,96613.34
2023-10-21T09:21:07.482Z,96618.56
2023-10-21T09:23:12.174Z,96618.97
2023-10-21T09:25:20.766Z,96618.97
2023-10-21T09:27:23.798Z,96625.28
2023-10-21T09:29:31.418Z,96621.53
2023-10-21T09:31:48.307Z,96622.66
2023-10-21T09:33:57.757Z,96629.13
2023-10-21T09:36:18.905Z,96625.88
2023-10-21T09:38:26.927Z,96628.75
2023-10-21T09:40:31.666Z,96630.94
2023-10-21T09:42:34.708Z,96651.09
2023-10-21T09:44:43.350Z,96658.22
2023-10-21T09:46:48.916Z,96648.63
2023-10-21T09:48:52.231Z,96652.03
2023-10-21T09:51:00.694Z,96664.34
2023-10-21T09:53:12.258Z,96660.75
2023-10-21T09:55:15.032Z,96662.38
2023-10-21T09:57:20.443Z,96668.69
2023-10-21T09:59:26.267Z,96667.16
2023-10-21T10:01:34.105Z,96665.06
2023-10-21T10:03:40.669Z,96669.22
2023-10-21T10:05:46.213Z,96674.50
2023-10-21T10:07:51.726Z,96667.97
2023-10-21T10:09:54.254Z,96676.25
2023-10-21T10:12:01.478Z,96685.50
2023-10-21T10:14:07.539Z,96679.34
2023-10-21T10:16:26.365Z,96675.81
2023-10-21T10:18:33.814Z,96668.28
2023-10-21T10:20:47.260Z,96679.25
2023-10-21T10:22:53.616Z,96680.75
2023-10-21T10:24:59.373Z,96672.94
2023-10-21T10:27:11.438Z,96676.47
2023-10-21T10:29:26.559Z,96680.19
2023-10-21T10:31:32.507Z,96683.22
2023-10-21T10:33:42.453Z,96684.94
2023-10-21T10:35:48.701Z,96679.91
2023-10-21T10:37:54.382Z,96680.56
2023-10-21T10:39:59.307Z,96677.59
2023-10-21T10:42:04.061Z,96677.59
2023-10-21T10:44:10.261Z,96673.78
2023-10-21T10:46:15.280Z,96683.66
2023-10-21T10:48:21.543Z,96677.34
2023-10-21T10:50:26.308Z,96692.19
2023-10-21T10:52:33.073Z,96698.88
2023-10-21T10:54:37.875Z,96694.97
2023-10-21T10:56:45.463Z,96694.22
2023-10-21T10:58:50.568Z,96691.34
2023-10-21T11:00:55.592Z,96700.94
2023-10-21T11:03:01.230Z,96698.00
2023-10-21T11:05:05.022Z,96692.22
2023-10-21T11:07:13.347Z,96693.97
2023-10-21T11:09:21.895Z,96699.63
2023-10-21T11:11:28.669Z,96698.94
2023-10-21T11:13:33.627Z,96704.84
2023-10-21T11:15:45.790Z,96702.81
2023-10-21T11:17:48.669Z,96704.19
2023-10-21T11:19:53.615Z,96702.59
2023-10-21T11:21:58.380Z,96702.88
2023-10-21T11:24:06.145Z,96709.25
2023-10-21T11:26:12.526Z,96699.31
2023-10-21T11:28:16.111Z,96709.34
2023-10-21T11:30:20.872Z,96691.97
2023-10-21T11:32:29.001Z,96693.38
2023-10-21T11:34:34.139Z,96701.38
2023-10-21T11:36:39.190Z,96709.50
2023-10-21T11:38:44.513Z,96705.06
2023-10-21T11:40:52.044Z,96698.63
2023-10-21T11:43:00.572Z,96701.78
2023-10-21T11:45:05.407Z,96701.78
2023-10-21T11:47:11.039Z,96710.69
2023-10-21T11:49:17.404Z,96703.25
2023-10-21T11:51:22.464Z,96711.31
2023-10-21T11:53:28.896Z,96710.97
2023-10-21T11:55:55.342Z,96719.84
2023-10-21T11:58:18.918Z,96727.72
2023-10-21T12:00:56.049Z,96726.84
2023-10-21T12:03:13.505Z,96734.25
2023-10-21T12:05:30.637Z,96734.56
2023-10-21T12:08:00.943Z,96731.06
2023-10-21T12:10:24.028Z,96729.25
2023-10-21T12:12:38.102Z,96731.88
2023-10-21T12:14:57.708Z,96741.97
2023-10-21T12:17:15.041Z,96740.81
2023-10-21T12:19:45.912Z,96741.47
2023-10-21T12:22:03.048Z,96738.16
2023-10-21T12:24:20.473Z,96733.75
2023-10-21T12:26:37.551Z,96736.59
2023-10-21T12:28:54.678Z,96737.59
2023-10-21T12:31:14.352Z,96737.97
2023-10-21T12:33:43.410Z,96745.88
2023-10-21T12:36:11.531Z,96747.06
2023-10-21T12:38:24.225Z,96744.59
2023-10-21T12:40:36.485Z,96739.31
2023-10-21T12:42:45.901Z,96741.09
2023-10-21T12:44:53.934Z,96740.44
2023-10-21T12:46:59.372Z,96736.63
2023-10-21T12:49:22.809Z,96738.25
2023-10-21T12:51:31.873Z,96738.16
2023-10-21T12:53:34.008Z,96739.66
2023-10-21T12:55:39.547Z,96747.84
2023-10-21T12:57:45.090Z,96738.56
2023-10-21T12:59:52.218Z,96750.88
2023-10-21T13:01:57.225Z,96750.53
2023-10-21T13:04:05.991Z,96754.63
2023-10-21T13:06:11.093Z,96759.03
2023-10-21T13:08:16.017Z,96767.00
2023-10-21T13:10:21.833Z,96774.72
2023-10-21T13:12:26.661Z,96773.44
2023-10-21T13:14:32.296Z,96782.25
2023-10-21T13:16:37.880Z,96780.44
2023-10-21T13:18:42.829Z,96774.56
2023-10-21T13:20:50.412Z,96778.22
2023-10-21T13:22:56.240Z,96780.53
2023-10-21T13:25:23.545Z,96770.69
2023-10-21T13:27:31.343Z,96767.44
2023-10-21T13:29:37.440Z,96770.56
2023-10-21T13:31:42.468Z,96770.19
2023-10-21T13:33:47.421Z,96767.72
2023-10-21T13:35:55.602Z,96774.56
2023-10-21T13:38:00.912Z,96777.53
2023-10-21T13:40:14.296Z,96773.34
2023-10-21T13:42:20.172Z,96783.84
2023-10-21T13:44:24.898Z,96780.00
2023-10-21T13:46:31.433Z,96781.94
2023-10-21T13:48:37.198Z,96773.53
2023-10-21T13:50:42.668Z,96773.81
2023-10-21T13:52:50.238Z,96776.59
2023-10-21T13:54:55.560Z,96784.28
2023-10-21T13:57:05.085Z,96786.00
2023-10-21T13:59:14.285Z,96788.25
2023-10-21T14:01:20.807Z,96787.56
2023-10-21T14:03:26.490Z,96783.88
2023-10-21T14:05:32.951Z,96795.97
2023-10-21T14:07:37.861Z,96803.63
2023-10-21T14:09:46.079Z,96803.78
2023-10-21T14:11:50.895Z,96812.28
2023-10-21T14:13:55.799Z,96816.69
2023-10-21T14:15:59.747Z,96822.41
2023-10-21T14:18:08.204Z,96827.81
2023-10-21T14:20:13.869Z,96836.16
2023-10-21T14:22:18.566Z,96840.88
2023-10-21T14:24:23.744Z,96850.56
2023-10-21T14:26:31.260Z,96854.19
2023-10-21T14:28:36.286Z,96844.34
2023-10-21T14:30:39.575Z,96843.66
2023-10-21T14:32:44.769Z,96844.03
2023-10-21T14:34:54.548Z,96851.41
2023-10-21T14:36:59.371Z,96852.81
2023-10-21T14:39:04.149Z,96864.16
2023-10-21T14:41:11.190Z,96861.69
2023-10-21T14:43:19.509Z,96866.41
2023-10-21T14:45:24.708Z,96858.81
2023-10-21T14:47:32.014Z,96862.84
2023-10-21T14:49:36.949Z,96865.88
2023-10-21T14:51:41.919Z,96863.38
2023-10-21T14:53:48.407Z,96870.44
2023-10-21T14:55:54.340Z,96858.00
2023-10-21T14:57:56.773Z,96865.34
2023-10-21T15:00:06.636Z,96856.22
2023-10-21T15:02:11.463Z,96858.00
2023-10-21T15:04:16.454Z,96860.78
2023-10-21T15:06:21.265Z,96868.69
2023-10-21T15:08:27.043Z,96859.97
2023-10-21T15:10:32.038Z,96861.34
2023-10-21T15:12:34.293Z,96861.63
2023-10-21T15:14:48.699Z,96862.03
2023-10-21T15:17:04.693Z,96862.59
2023-10-21T15:19:09.889Z,96874.50
2023-10-21T15:21:16.909Z,96874.91
2023-10-21T15:23:19.286Z,96876.72
2023-10-21T15:25:24.178Z,96885.69
2023-10-21T15:27:29.348Z,96884.06
2023-10-21T15:29:36.415Z,96883.50
2023-10-21T15:31:42.968Z,96882.66
2023-10-21T15:33:50.688Z,96884.53
2023-10-21T15:35:57.413Z,96879.00
2023-10-21T15:38:02.209Z,96884.38
2023-10-21T15:40:07.482Z,96884.00
2023-10-21T15:42:12.204Z,96886.63
2023-10-21T15:44:17.013Z,96896.16
2023-10-21T15:46:19.413Z,96906.00
2023-10-21T15:48:24.438Z,96916.78
2023-10-21T15:50:32.953Z,96917.16
2023-10-21T15:52:37.739Z,96916.47
2023-10-21T15:54:44.822Z,96919.25
2023-10-21T15:56:49.607Z,96928.06
2023-10-21T15:58:54.895Z,96930.84
2023-10-21T16:00:59.921Z,96934.56
2023-10-21T16:03:07.064Z,96935.53
2023-10-21T16:05:12.144Z,96939.66
2023-10-21T16:07:19.828Z,96945.16
2023-10-21T16:09:24.564Z,96942.94
2023-10-21T16:11:29.744Z,96943.88
2023-10-21T16:13:32.281Z,96942.59
2023-10-21T16:15:37.115Z,96949.19
2023-10-21T16:17:42.202Z,96949.47
2023-10-21T16:19:47.084Z,96955.09
2023-10-21T16:21:55.477Z,96954.97
2023-10-21T16:24:03.030Z,96959.66
2023-10-21T16:26:08.055Z,96952.63
2023-10-21T16:28:13.341Z,96959.78
2023-10-21T16:30:18.793Z,96953.72
2023-10-21T16:32:23.626Z,96958.75
2023-10-21T16:34:28.637Z,96954.34
2023-10-21T16:36:33.504Z,96953.41
2023-10-21T16:38:39.137Z,96955.19
2023-10-21T16:40:46.486Z,96953.50
2023-10-21T16:42:51.216Z,96958.75
2023-10-21T16:44:57.535Z,96965.56
2023-10-21T16:47:03.342Z,96970.69
2023-10-21T16:49:09.291Z,96966.25
2023-10-21T16:51:14.723Z,96963.50
2023-10-21T16:53:20.408Z,96967.09
2023-10-21T16:55:25.121Z,96975.34
2023-10-21T16:57:35.151Z,96988.59
2023-10-21T16:59:41.492Z,96986.09
2023-10-21T17:01:47.884Z,96998.28
2023-10-21T17:03:53.416Z,97001.97
2023-10-21T17:06:01.851Z,97008.16
2023-10-21T17:08:08.208Z,97004.97
2023-10-21T17:10:15.444Z,97014.19
2023-10-21T17:12:17.801Z,97019.44
2023-10-21T17:14:25.945Z,97018.75
2023-10-21T17:16:31.028Z,97017.78
2023-10-21T17:18:35.872Z,97025.09
2023-10-21T17:20:41.524Z,97033.91
2023-10-21T17:22:47.431Z,97026.88
2023-10-21T17:24:52.344Z,97031.50
2023-10-21T17:26:57.159Z,97038.53
2023-10-21T17:29:02.141Z,97039.63
2023-10-21T17:31:09.561Z,97041.31
2023-10-21T17:33:14.390Z,97043.94
2023-10-21T17:35:19.464Z,97057.16
2023-10-21T17:37:24.384Z,97051.19
2023-10-21T17:39:29.430Z,97057.16
2023-10-21T17:41:34.310Z,97055.59
2023-10-21T17:43:39.765Z,97065.16
2023-10-21T17:45:45.515Z,97061.69
2023-10-21T17:47:53.932Z,97067.91
2023-10-21T17:49:59.210Z,97071.50
2023-10-21T17:52:05.292Z,97072.56
2023-10-21T17:54:14.895Z,97066.59
2023-10-21T17:56:20.213Z,97061.72
2023-10-21T17:58:25.053Z,97062.81
2023-10-21T18:00:31.690Z,97055.06
2023-10-21T18:02:36.600Z,97053.66
2023-10-21T18:04:45.511Z,97053.44
2023-10-21T18:06:51.361Z,97069.78
2023-10-21T18:08:55.133Z,97085.66
2023-10-21T18:11:00.383Z,97082.22
2023-10-21T18:13:02.693Z,97087.56
2023-10-21T18:15:10.338Z,97077.06
2023-10-21T18:17:16.939Z,97078.28
2023-10-21T18:19:22.463Z,97084.59
2023-10-21T18:21:31.689Z,97083.28
2023-10-21T18:23:36.800Z,97078.88
2023-10-21T18:25:41.653Z,97074.25
2023-10-21T18:27:46.797Z,97082.81
2023-10-21T18:29:51.710Z,97096.66
2023-10-21T18:31:58.740Z,97095.00
2023-10-21T18:34:03.866Z,97101.06
2023-10-21T18:36:09.574Z,97115.72
2023-10-21T18:38:20.275Z,97101.66
2023-10-21T18:40:25.581Z,97083.66
2023-10-21T18:42:31.488Z,97075.69
2023-10-21T18:44:37.274Z,97086.53
2023-10-21T18:46:42.689Z,97086.75
2023-10-21T18:48:47.825Z,97090.56
2023-10-21T18:50:59.486Z,97092.84
2023-10-21T18:53:05.520Z,97104.00
2023-10-21T18:55:14.896Z,97112.00
2023-10-21T18:57:19.900Z,97101.63
2023-10-21T18:59:24.747Z,97108.53
2023-10-21T19:01:30.258Z,97106.75
2023-10-21T19:03:35.338Z,97110.56
2023-10-21T19:05:39.176Z,97116.22
2023-10-21T19:07:43.929Z,97126.00
2023-10-21T19:09:49.011Z,97124.06
2023-10-21T19:11:57.723Z,97113.50
2023-10-21T19:14:01.162Z,97112.66
2023-10-21T19:16:06.154Z,97115.38
2023-10-21T19:18:11.173Z,97110.28
2023-10-21T19:20:16.213Z,97123.38
2023-10-21T19:22:21.246Z,97137.63
2023-10-21T19:24:26.018Z,97151.34
2023-10-21T19:26:30.965Z,97161.81
2023-10-21T19:28:38.754Z,97169.69
2023-10-21T19:30:44.033Z,97152.28
2023-10-21T19:32:49.311Z,97157.75
2023-10-21T19:34:54.189Z,97164.28
2023-10-21T19:36:59.268Z,97162.50
2023-10-21T19:39:05.984Z,97147.97
2023-10-21T19:41:09.058Z,97147.25
2023-10-21T19:43:14.568Z,97150.91
2023-10-21T19:45:22.111Z,97166.53
2023-10-21T19:47:27.032Z,97179.47
2023-10-21T19:49:32.056Z,97175.34
2023-10-21T19:51:36.852Z,97174.72
2023-10-21T19:53:41.740Z,97180.19
2023-10-21T19:55:46.883Z,97187.56
2023-10-21T19:57:52.307Z,97183.16
2023-10-21T19:59:54.550Z,97180.41
2023-10-21T20:02:01.942Z,97176.72
2023-10-21T20:04:07.752Z,97165.28
2023-10-21T20:06:12.824Z,97169.59
2023-10-21T20:08:17.627Z,97167.59
2023-10-21T20:10:23.594Z,97169.47
2023-10-21T20:12:28.414Z,97168.88
2023-10-21T20:14:34.446Z,97174.34
2023-10-21T20:16:41.293Z,97161.97
2023-10-21T20:18:50.298Z,97151.50
2023-10-21T20:20:55.100Z,97158.53
2023-10-21T20:23:00.078Z,97155.69
2023-10-21T20:25:05.222Z,97162.69
2023-10-21T20:27:09.944Z,97171.50
2023-10-21T20:29:14.852Z,97174.00
2023-10-21T20:31:19.764Z,97165.94
2023-10-21T20:33:25.482Z,97163.78
2023-10-21T20:35:36.109Z,97171.16
2023-10-21T20:37:42.636Z,97174.84
2023-10-21T20:39:49.251Z,97186.13
2023-10-21T20:41:57.603Z,97200.88
2023-10-21T20:44:02.344Z,97203.50
2023-10-21T20:46:08.213Z,97216.00
2023-10-21T20:48:13.501Z,97214.44
2023-10-21T20:50:20.307Z,97224.06
2023-10-21T20:52:28.691Z,97229.63
2023-10-21T20:54:33.622Z,97228.31
2023-10-21T20:56:39.108Z,97234.81
2023-10-21T20:58:43.866Z,97243.13
2023-10-21T21:00:49.348Z,97250.47
2023-10-21T21:02:54.278Z,97249.94
2023-10-21T21:04:58.702Z,97249.56
2023-10-21T21:07:10.417Z,97258.53
2023-10-21T21:09:17.979Z,97260.53
2023-10-21T21:11:23.055Z,97268.09
2023-10-21T21:13:27.918Z,97259.63
2023-10-21T21:15:32.792Z,97260.88
2023-10-21T21:17:37.735Z,97256.72
2023-10-21T21:19:42.749Z,97259.53
2023-10-21T21:21:47.531Z,97256.31
2023-10-21T21:23:52.227Z,97260.81
2023-10-21T21:25:59.769Z,97264.47
2023-10-21T21:28:05.725Z,97262.59
2023-10-21T21:30:11.301Z,97261.00
2023-10-21T21:32:16.141Z,97265.50
2023-10-21T21:34:20.889Z,97265.00
2023-10-21T21:36:25.901Z,97262.47
2023-10-21T21:38:28.103Z,97261.75
2023-10-21T21:40:33.495Z,97252.25
2023-10-21T21:42:40.984Z,97257.25
2023-10-21T21:44:45.772Z,97260.69
2023-10-21T21:46:50.793Z,97253.72
2023-10-21T21:48:55.690Z,97258.00
2023-10-21T21:51:02.785Z,97266.78
2023-10-21T21:53:09.984Z,97266.97
2023-10-21T21:55:16.548Z,97266.53
2023-10-21T21:57:21.681Z,97278.69
2023-10-21T21:59:29.314Z,97275.19
2023-10-21T22:01:33.976Z,97271.97
2023-10-21T22:03:36.442Z,97273.00
2023-10-21T22:05:41.393Z,97267.78
2023-10-21T22:07:46.347Z,97277.41
2023-10-21T22:09:48.774Z,97282.97
2023-10-21T22:11:54.122Z,97272.69
2023-10-21T22:13:58.989Z,97278.13
2023-10-21T22:16:08.169Z,97274.81
2023-10-21T22:18:13.448Z,97274.91
2023-10-21T22:20:20.977Z,97273.31
2023-10-21T22:22:25.644Z,97275.94
2023-10-21T22:24:30.563Z,97263.53
2023-10-21T22:26:44.633Z,97264.16
2023-10-21T22:28:49.855Z,97270.00
2023-10-21T22:31:01.293Z,97268.94
2023-10-21T22:33:09.105Z,97282.63
2023-10-21T22:35:13.958Z,97274.72
2023-10-21T22:37:18.712Z,97283.25
2023-10-21T22:39:23.373Z,97286.59
2023-10-21T22:41:28.126Z,97282.34
2023-10-21T22:43:32.834Z,97279.72
2023-10-21T22:45:39.388Z,97285.78
2023-10-21T22:47:44.842Z,97289.84
2023-10-21T22:49:52.387Z,97286.53
2023-10-21T22:51:57.126Z,97289.13
2023-10-21T22:54:01.986Z,97289.44
2023-10-21T22:56:07.172Z,97289.44
2023-10-21T22:58:11.928Z,97290.19
2023-10-21T23:00:17.695Z,97289.31
2023-10-21T23:02:22.535Z,97283.03
2023-10-21T23:04:27.318Z,97274.28
2023-10-21T23:06:35.276Z,97282.66
2023-10-21T23:08:41.649Z,97290.19
2023-10-21T23:10:46.471Z,97279.75
2023-10-21T23:12:52.239Z,97278.69
2023-10-21T23:14:57.160Z,97290.59
2023-10-21T23:17:03.012Z,97290.72
2023-10-21T23:19:08.706Z,97292.28
2023-10-21T23:21:13.815Z,97284.31
2023-10-21T23:23:20.361Z,97289.34
2023-10-21T23:25:25.533Z,97288.31
2023-10-21T23:27:30.411Z,97295.94
2023-10-21T23:29:35.302Z,97294.78
2023-10-21T23:31:40.145Z,97298.34
2023-10-21T23:33:44.974Z,97292.28
2023-10-21T23:35:47.714Z,97296.66
2023-10-21T23:37:53.311Z,97295.72
2023-10-21T23:40:00.989Z,97302.13
2023-10-21T23:42:07.312Z,97298.53
2023-10-21T23:44:13.629Z,97303.91
2023-10-21T23:46:18.491Z,97307.97
2023-10-21T23:48:23.284Z,97305.47
2023-10-21T23:50:29.694Z,97302.72
2023-10-21T23:52:34.819Z,97313.19
2023-10-21T23:54:39.689Z,97313.19
2023-10-21T23:56:47.226Z,97311.63
2023-10-21T23:58:49.708Z,97312.44
